sensor_id;sensor_type;location;lat;lon;timestamp;temperature;humidity
10057;DHT22;5068;51.286;7.518;2023-11-18T00:00:30;0.70;67.10
10057;DHT22;5068;51.286;7.518;2023-11-18T00:02:04;0.70;67.10
10057;DHT22;5068;51.286;7.518;2023-11-18T00:03:37;0.80;67.10
10057;DHT22;5068;51.286;7.518;2023-11-18T00:05:11;0.80;67.20
10057;DHT22;5068;51.286;7.518;2023-11-18T00:06:45;0.80;67.20
10057;DHT22;5068;51.286;7.518;2023-11-18T00:08:19;0.80;67.20
10057;DHT22;5068;51.286;7.518;2023-11-18T00:09:51;0.80;67.30
10057;DHT22;5068;51.286;7.518;2023-11-18T00:11:24;0.80;67.30
10057;DHT22;5068;51.286;7.518;2023-11-18T00:12:59;0.90;67.30
10057;DHT22;5068;51.286;7.518;2023-11-18T00:14:31;0.90;67.30
10057;DHT22;5068;51.286;7.518;2023-11-18T00:16:05;0.90;67.20
10057;DHT22;5068;51.286;7.518;2023-11-18T00:17:39;0.90;67.30
10057;DHT22;5068;51.286;7.518;2023-11-18T00:19:13;0.90;67.20
10057;DHT22;5068;51.286;7.518;2023-11-18T00:20:45;0.90;67.00
10057;DHT22;5068;51.286;7.518;2023-11-18T00:22:19;1.00;67.10
10057;DHT22;5068;51.286;7.518;2023-11-18T00:23:51;1.00;67.00
10057;DHT22;5068;51.286;7.518;2023-11-18T00:25:25;1.00;66.90
10057;DHT22;5068;51.286;7.518;2023-11-18T00:26:59;1.00;67.00
10057;DHT22;5068;51.286;7.518;2023-11-18T00:28:31;1.00;66.90
10057;DHT22;5068;51.286;7.518;2023-11-18T00:30:05;1.00;66.80
10057;DHT22;5068;51.286;7.518;2023-11-18T00:31:40;1.00;66.90
10057;DHT22;5068;51.286;7.518;2023-11-18T00:33:14;1.10;66.90
10057;DHT22;5068;51.286;7.518;2023-11-18T00:34:47;1.10;66.80
10057;DHT22;5068;51.286;7.518;2023-11-18T00:36:20;1.10;66.80
10057;DHT22;5068;51.286;7.518;2023-11-18T00:37:53;1.10;67.00
10057;DHT22;5068;51.286;7.518;2023-11-18T00:39:27;1.10;67.10
10057;DHT22;5068;51.286;7.518;2023-11-18T00:40:59;1.10;67.10
10057;DHT22;5068;51.286;7.518;2023-11-18T00:42:32;1.10;67.30
10057;DHT22;5068;51.286;7.518;2023-11-18T00:44:05;1.10;67.30
10057;DHT22;5068;51.286;7.518;2023-11-18T00:45:40;1.10;67.50
10057;DHT22;5068;51.286;7.518;2023-11-18T00:47:15;1.20;67.80
10057;DHT22;5068;51.286;7.518;2023-11-18T00:48:50;1.10;67.50
10057;DHT22;5068;51.286;7.518;2023-11-18T00:50:23;1.20;67.60
10057;DHT22;5068;51.286;7.518;2023-11-18T00:51:56;1.20;67.70
10057;DHT22;5068;51.286;7.518;2023-11-18T00:53:30;1.20;67.70
10057;DHT22;5068;51.286;7.518;2023-11-18T00:55:04;1.20;67.80
10057;DHT22;5068;51.286;7.518;2023-11-18T00:56:39;1.20;68.00
10057;DHT22;5068;51.286;7.518;2023-11-18T00:58:11;1.20;67.80
10057;DHT22;5068;51.286;7.518;2023-11-18T00:59:45;1.20;67.70
10057;DHT22;5068;51.286;7.518;2023-11-18T01:01:17;1.20;67.80
10057;DHT22;5068;51.286;7.518;2023-11-18T01:02:51;1.20;67.80
10057;DHT22;5068;51.286;7.518;2023-11-18T01:04:25;1.20;67.70
10057;DHT22;5068;51.286;7.518;2023-11-18T01:05:59;1.30;67.90
10057;DHT22;5068;51.286;7.518;2023-11-18T01:07:32;1.30;67.90
10057;DHT22;5068;51.286;7.518;2023-11-18T01:09:06;1.30;67.90
10057;DHT22;5068;51.286;7.518;2023-11-18T01:10:39;1.30;68.00
10057;DHT22;5068;51.286;7.518;2023-11-18T01:12:12;1.20;67.80
10057;DHT22;5068;51.286;7.518;2023-11-18T01:13:45;1.30;68.00
10057;DHT22;5068;51.286;7.518;2023-11-18T01:15:19;1.30;68.70
10057;DHT22;5068;51.286;7.518;2023-11-18T01:16:52;1.30;68.00
10057;DHT22;5068;51.286;7.518;2023-11-18T01:18:25;1.30;67.90
10057;DHT22;5068;51.286;7.518;2023-11-18T01:19:59;1.30;67.90
10057;DHT22;5068;51.286;7.518;2023-11-18T01:21:38;1.30;67.90
10057;DHT22;5068;51.286;7.518;2023-11-18T01:23:11;1.30;67.80
10057;DHT22;5068;51.286;7.518;2023-11-18T01:24:44;1.30;67.70
10057;DHT22;5068;51.286;7.518;2023-11-18T01:26:17;1.30;67.80
10057;DHT22;5068;51.286;7.518;2023-11-18T01:27:50;1.40;67.80
10057;DHT22;5068;51.286;7.518;2023-11-18T01:29:23;1.40;67.80
10057;DHT22;5068;51.286;7.518;2023-11-18T01:30:55;1.30;67.70
10057;DHT22;5068;51.286;7.518;2023-11-18T01:32:29;1.40;67.70
10057;DHT22;5068;51.286;7.518;2023-11-18T01:34:02;1.40;67.70
10057;DHT22;5068;51.286;7.518;2023-11-18T01:35:38;1.30;67.70
10057;DHT22;5068;51.286;7.518;2023-11-18T01:37:11;1.40;67.70
10057;DHT22;5068;51.286;7.518;2023-11-18T01:38:45;1.40;67.30
10057;DHT22;5068;51.286;7.518;2023-11-18T01:40:18;1.40;67.70
10057;DHT22;5068;51.286;7.518;2023-11-18T01:41:51;1.40;67.70
10057;DHT22;5068;51.286;7.518;2023-11-18T01:43:24;1.40;67.70
10057;DHT22;5068;51.286;7.518;2023-11-18T01:44:57;1.40;67.60
10057;DHT22;5068;51.286;7.518;2023-11-18T01:46:31;1.40;67.50
10057;DHT22;5068;51.286;7.518;2023-11-18T01:48:05;1.40;67.60
10057;DHT22;5068;51.286;7.518;2023-11-18T01:49:38;1.40;68.40
10057;DHT22;5068;51.286;7.518;2023-11-18T01:51:14;1.40;67.50
10057;DHT22;5068;51.286;7.518;2023-11-18T01:52:47;1.40;67.30
10057;DHT22;5068;51.286;7.518;2023-11-18T01:54:21;1.40;67.30
10057;DHT22;5068;51.286;7.518;2023-11-18T01:55:56;1.40;67.20
10057;DHT22;5068;51.286;7.518;2023-11-18T01:57:32;1.30;67.10
10057;DHT22;5068;51.286;7.518;2023-11-18T01:59:06;1.30;67.10
10057;DHT22;5068;51.286;7.518;2023-11-18T02:00:41;1.40;67.20
10057;DHT22;5068;51.286;7.518;2023-11-18T02:02:16;1.40;67.20
10057;DHT22;5068;51.286;7.518;2023-11-18T02:03:50;1.40;67.20
10057;DHT22;5068;51.286;7.518;2023-11-18T02:05:24;1.30;67.00
10057;DHT22;5068;51.286;7.518;2023-11-18T02:06:58;1.30;67.10
10057;DHT22;5068;51.286;7.518;2023-11-18T02:08:35;1.30;67.10
10057;DHT22;5068;51.286;7.518;2023-11-18T02:10:10;1.30;67.10
10057;DHT22;5068;51.286;7.518;2023-11-18T02:11:50;1.30;67.00
10057;DHT22;5068;51.286;7.518;2023-11-18T02:13:31;1.30;67.10
10057;DHT22;5068;51.286;7.518;2023-11-18T02:15:07;1.30;67.00
10057;DHT22;5068;51.286;7.518;2023-11-18T02:16:44;1.30;67.00
10057;DHT22;5068;51.286;7.518;2023-11-18T02:18:23;1.40;67.10
10057;DHT22;5068;51.286;7.518;2023-11-18T02:19:58;1.20;66.90
10057;DHT22;5068;51.286;7.518;2023-11-18T02:21:34;1.20;66.70
10057;DHT22;5068;51.286;7.518;2023-11-18T02:23:10;1.20;66.70
10057;DHT22;5068;51.286;7.518;2023-11-18T02:24:43;1.20;66.60
10057;DHT22;5068;51.286;7.518;2023-11-18T02:26:22;1.20;66.60
10057;DHT22;5068;51.286;7.518;2023-11-18T02:27:54;1.30;66.60
10057;DHT22;5068;51.286;7.518;2023-11-18T02:29:29;1.20;67.20
10057;DHT22;5068;51.286;7.518;2023-11-18T02:31:11;1.20;66.60
10057;DHT22;5068;51.286;7.518;2023-11-18T02:32:54;1.20;66.60
10057;DHT22;5068;51.286;7.518;2023-11-18T02:34:32;1.20;66.50
10057;DHT22;5068;51.286;7.518;2023-11-18T02:36:13;1.20;67.20
10057;DHT22;5068;51.286;7.518;2023-11-18T02:37:54;1.20;66.40
10057;DHT22;5068;51.286;7.518;2023-11-18T02:39:32;1.20;66.30
10057;DHT22;5068;51.286;7.518;2023-11-18T02:41:12;1.20;66.30
10057;DHT22;5068;51.286;7.518;2023-11-18T02:42:51;1.10;66.20
10057;DHT22;5068;51.286;7.518;2023-11-18T02:44:25;1.10;66.20
10057;DHT22;5068;51.286;7.518;2023-11-18T02:46:00;1.10;66.20
10057;DHT22;5068;51.286;7.518;2023-11-18T02:47:34;1.10;66.20
10057;DHT22;5068;51.286;7.518;2023-11-18T02:49:07;1.10;66.20
10057;DHT22;5068;51.286;7.518;2023-11-18T02:50:41;1.10;67.00
10057;DHT22;5068;51.286;7.518;2023-11-18T02:52:14;1.10;66.20
10057;DHT22;5068;51.286;7.518;2023-11-18T02:53:47;1.10;66.30
10057;DHT22;5068;51.286;7.518;2023-11-18T02:55:21;1.00;66.30
10057;DHT22;5068;51.286;7.518;2023-11-18T02:56:54;1.00;66.30
10057;DHT22;5068;51.286;7.518;2023-11-18T02:58:29;1.10;66.50
10057;DHT22;5068;51.286;7.518;2023-11-18T03:00:02;1.10;66.60
10057;DHT22;5068;51.286;7.518;2023-11-18T03:01:36;1.00;66.50
10057;DHT22;5068;51.286;7.518;2023-11-18T03:03:11;1.10;66.60
10057;DHT22;5068;51.286;7.518;2023-11-18T03:04:47;1.00;66.50
10057;DHT22;5068;51.286;7.518;2023-11-18T03:06:19;1.00;66.60
10057;DHT22;5068;51.286;7.518;2023-11-18T03:07:52;1.00;66.50
10057;DHT22;5068;51.286;7.518;2023-11-18T03:09:26;1.10;66.70
10057;DHT22;5068;51.286;7.518;2023-11-18T03:11:00;1.10;66.70
10057;DHT22;5068;51.286;7.518;2023-11-18T03:12:32;1.10;66.70
10057;DHT22;5068;51.286;7.518;2023-11-18T03:14:07;1.00;66.60
10057;DHT22;5068;51.286;7.518;2023-11-18T03:15:41;1.00;66.70
10057;DHT22;5068;51.286;7.518;2023-11-18T03:17:14;1.00;66.70
10057;DHT22;5068;51.286;7.518;2023-11-18T03:18:48;1.00;66.60
10057;DHT22;5068;51.286;7.518;2023-11-18T03:20:22;1.00;66.60
10057;DHT22;5068;51.286;7.518;2023-11-18T03:21:58;1.00;66.70
10057;DHT22;5068;51.286;7.518;2023-11-18T03:23:31;1.00;66.60
10057;DHT22;5068;51.286;7.518;2023-11-18T03:25:05;1.00;66.70
10057;DHT22;5068;51.286;7.518;2023-11-18T03:26:39;1.00;66.70
10057;DHT22;5068;51.286;7.518;2023-11-18T03:28:12;1.00;66.60
10057;DHT22;5068;51.286;7.518;2023-11-18T03:29:47;1.00;66.60
10057;DHT22;5068;51.286;7.518;2023-11-18T03:31:23;1.00;66.60
10057;DHT22;5068;51.286;7.518;2023-11-18T03:32:56;1.00;66.50
10057;DHT22;5068;51.286;7.518;2023-11-18T03:34:29;1.00;66.50
10057;DHT22;5068;51.286;7.518;2023-11-18T03:36:03;1.00;66.50
10057;DHT22;5068;51.286;7.518;2023-11-18T03:37:38;1.00;66.60
10057;DHT22;5068;51.286;7.518;2023-11-18T03:39:12;1.00;66.70
10057;DHT22;5068;51.286;7.518;2023-11-18T03:40:46;1.00;66.70
10057;DHT22;5068;51.286;7.518;2023-11-18T03:42:19;1.00;66.70
10057;DHT22;5068;51.286;7.518;2023-11-18T03:43:54;1.00;66.70
10057;DHT22;5068;51.286;7.518;2023-11-18T03:45:28;1.00;66.70
10057;DHT22;5068;51.286;7.518;2023-11-18T03:47:01;0.90;66.60
10057;DHT22;5068;51.286;7.518;2023-11-18T03:48:34;1.00;66.70
10057;DHT22;5068;51.286;7.518;2023-11-18T03:50:08;1.00;66.70
10057;DHT22;5068;51.286;7.518;2023-11-18T03:51:42;1.00;66.80
10057;DHT22;5068;51.286;7.518;2023-11-18T03:53:16;1.00;66.70
10057;DHT22;5068;51.286;7.518;2023-11-18T03:54:48;1.00;66.80
10057;DHT22;5068;51.286;7.518;2023-11-18T03:56:22;1.00;66.80
10057;DHT22;5068;51.286;7.518;2023-11-18T03:57:54;1.00;66.90
10057;DHT22;5068;51.286;7.518;2023-11-18T03:59:29;1.00;66.80
10057;DHT22;5068;51.286;7.518;2023-11-18T04:01:07;1.00;66.90
10057;DHT22;5068;51.286;7.518;2023-11-18T04:02:52;1.00;66.80
10057;DHT22;5068;51.286;7.518;2023-11-18T04:04:24;1.00;66.80
10057;DHT22;5068;51.286;7.518;2023-11-18T04:05:58;1.00;66.80
10057;DHT22;5068;51.286;7.518;2023-11-18T04:07:30;1.00;66.80
10057;DHT22;5068;51.286;7.518;2023-11-18T04:09:06;1.00;66.80
10057;DHT22;5068;51.286;7.518;2023-11-18T04:10:41;1.00;66.80
10057;DHT22;5068;51.286;7.518;2023-11-18T04:12:24;1.10;66.90
10057;DHT22;5068;51.286;7.518;2023-11-18T04:13:58;1.10;67.00
10057;DHT22;5068;51.286;7.518;2023-11-18T04:15:31;1.10;67.00
10057;DHT22;5068;51.286;7.518;2023-11-18T04:17:06;1.10;67.80
10057;DHT22;5068;51.286;7.518;2023-11-18T04:18:51;1.10;67.20
10057;DHT22;5068;51.286;7.518;2023-11-18T04:20:25;1.10;67.00
10057;DHT22;5068;51.286;7.518;2023-11-18T04:22:03;1.10;67.20
10057;DHT22;5068;51.286;7.518;2023-11-18T04:23:39;1.10;67.20
10057;DHT22;5068;51.286;7.518;2023-11-18T04:25:14;1.10;67.20
10057;DHT22;5068;51.286;7.518;2023-11-18T04:26:49;1.10;67.10
10057;DHT22;5068;51.286;7.518;2023-11-18T04:28:21;1.10;67.10
10057;DHT22;5068;51.286;7.518;2023-11-18T04:29:55;1.10;67.20
10057;DHT22;5068;51.286;7.518;2023-11-18T04:31:27;1.10;67.20
10057;DHT22;5068;51.286;7.518;2023-11-18T04:33:02;1.10;67.30
10057;DHT22;5068;51.286;7.518;2023-11-18T04:34:36;1.10;67.40
10057;DHT22;5068;51.286;7.518;2023-11-18T04:36:10;1.10;67.50
10057;DHT22;5068;51.286;7.518;2023-11-18T04:37:42;1.10;67.50
10057;DHT22;5068;51.286;7.518;2023-11-18T04:39:18;1.10;67.50
10057;DHT22;5068;51.286;7.518;2023-11-18T04:40:51;1.20;67.70
10057;DHT22;5068;51.286;7.518;2023-11-18T04:42:26;1.20;67.70
10057;DHT22;5068;51.286;7.518;2023-11-18T04:44:01;1.20;67.70
10057;DHT22;5068;51.286;7.518;2023-11-18T04:45:34;1.20;67.70
10057;DHT22;5068;51.286;7.518;2023-11-18T04:47:09;1.20;67.70
10057;DHT22;5068;51.286;7.518;2023-11-18T04:48:47;1.20;67.70
10057;DHT22;5068;51.286;7.518;2023-11-18T04:50:20;1.20;67.70
10057;DHT22;5068;51.286;7.518;2023-11-18T04:51:55;1.20;67.60
10057;DHT22;5068;51.286;7.518;2023-11-18T04:53:28;1.20;67.50
10057;DHT22;5068;51.286;7.518;2023-11-18T04:55:01;1.20;67.30
10057;DHT22;5068;51.286;7.518;2023-11-18T04:56:34;1.20;67.20
10057;DHT22;5068;51.286;7.518;2023-11-18T04:58:08;1.20;67.20
10057;DHT22;5068;51.286;7.518;2023-11-18T04:59:41;1.20;66.90
10057;DHT22;5068;51.286;7.518;2023-11-18T05:01:15;1.30;67.00
10057;DHT22;5068;51.286;7.518;2023-11-18T05:02:48;1.20;66.90
10057;DHT22;5068;51.286;7.518;2023-11-18T05:04:23;1.30;67.00
10057;DHT22;5068;51.286;7.518;2023-11-18T05:05:55;1.20;66.90
10057;DHT22;5068;51.286;7.518;2023-11-18T05:07:29;1.20;66.90
10057;DHT22;5068;51.286;7.518;2023-11-18T05:09:02;1.20;66.90
10057;DHT22;5068;51.286;7.518;2023-11-18T05:10:39;1.20;67.00
10057;DHT22;5068;51.286;7.518;2023-11-18T05:12:11;1.20;66.90
10057;DHT22;5068;51.286;7.518;2023-11-18T05:13:45;1.30;67.90
10057;DHT22;5068;51.286;7.518;2023-11-18T05:15:17;1.20;66.90
10057;DHT22;5068;51.286;7.518;2023-11-18T05:16:51;1.30;67.10
10057;DHT22;5068;51.286;7.518;2023-11-18T05:18:24;1.20;66.90
10057;DHT22;5068;51.286;7.518;2023-11-18T05:20:03;1.20;66.90
10057;DHT22;5068;51.286;7.518;2023-11-18T05:21:37;1.20;67.00
10057;DHT22;5068;51.286;7.518;2023-11-18T05:23:10;1.20;66.90
10057;DHT22;5068;51.286;7.518;2023-11-18T05:24:44;1.30;67.10
10057;DHT22;5068;51.286;7.518;2023-11-18T05:26:17;1.20;66.90
10057;DHT22;5068;51.286;7.518;2023-11-18T05:27:49;1.20;67.00
10057;DHT22;5068;51.286;7.518;2023-11-18T05:29:23;1.20;66.90
10057;DHT22;5068;51.286;7.518;2023-11-18T05:30:56;1.20;66.90
10057;DHT22;5068;51.286;7.518;2023-11-18T05:32:30;1.20;66.90
10057;DHT22;5068;51.286;7.518;2023-11-18T05:34:02;1.20;67.00
10057;DHT22;5068;51.286;7.518;2023-11-18T05:35:38;1.20;66.90
10057;DHT22;5068;51.286;7.518;2023-11-18T05:37:10;1.20;67.70
10057;DHT22;5068;51.286;7.518;2023-11-18T05:38:43;1.20;66.90
10057;DHT22;5068;51.286;7.518;2023-11-18T05:40:15;1.20;66.90
10057;DHT22;5068;51.286;7.518;2023-11-18T05:41:49;1.20;66.90
10057;DHT22;5068;51.286;7.518;2023-11-18T05:43:23;1.20;67.00
10057;DHT22;5068;51.286;7.518;2023-11-18T05:45:01;1.20;67.00
10057;DHT22;5068;51.286;7.518;2023-11-18T05:46:33;1.20;67.00
10057;DHT22;5068;51.286;7.518;2023-11-18T05:48:07;1.20;67.00
10057;DHT22;5068;51.286;7.518;2023-11-18T05:49:40;1.20;66.90
10057;DHT22;5068;51.286;7.518;2023-11-18T05:51:19;1.30;67.00
10057;DHT22;5068;51.286;7.518;2023-11-18T05:52:53;1.20;67.00
10057;DHT22;5068;51.286;7.518;2023-11-18T05:54:27;1.20;67.90
10057;DHT22;5068;51.286;7.518;2023-11-18T05:56:00;1.20;67.00
10057;DHT22;5068;51.286;7.518;2023-11-18T05:57:33;1.20;67.00
10057;DHT22;5068;51.286;7.518;2023-11-18T05:59:07;1.20;66.90
10057;DHT22;5068;51.286;7.518;2023-11-18T06:00:41;1.20;66.90
10057;DHT22;5068;51.286;7.518;2023-11-18T06:02:13;1.20;66.90
10057;DHT22;5068;51.286;7.518;2023-11-18T06:03:50;1.20;66.90
10057;DHT22;5068;51.286;7.518;2023-11-18T06:05:23;1.20;67.00
10057;DHT22;5068;51.286;7.518;2023-11-18T06:06:59;1.20;66.90
10057;DHT22;5068;51.286;7.518;2023-11-18T06:08:34;1.20;67.20
10057;DHT22;5068;51.286;7.518;2023-11-18T06:10:07;1.20;67.00
10057;DHT22;5068;51.286;7.518;2023-11-18T06:11:41;1.20;67.00
10057;DHT22;5068;51.286;7.518;2023-11-18T06:13:13;1.20;66.90
10057;DHT22;5068;51.286;7.518;2023-11-18T06:14:48;1.20;66.90
10057;DHT22;5068;51.286;7.518;2023-11-18T06:16:24;1.20;66.90
10057;DHT22;5068;51.286;7.518;2023-11-18T06:17:58;1.20;67.00
10057;DHT22;5068;51.286;7.518;2023-11-18T06:19:31;1.20;67.00
10057;DHT22;5068;51.286;7.518;2023-11-18T06:21:06;1.20;67.00
10057;DHT22;5068;51.286;7.518;2023-11-18T06:22:40;1.20;67.00
10057;DHT22;5068;51.286;7.518;2023-11-18T06:24:14;1.20;67.00
10057;DHT22;5068;51.286;7.518;2023-11-18T06:25:46;1.20;67.00
10057;DHT22;5068;51.286;7.518;2023-11-18T06:27:21;1.20;67.20
10057;DHT22;5068;51.286;7.518;2023-11-18T06:28:55;1.20;67.10
10057;DHT22;5068;51.286;7.518;2023-11-18T06:30:29;1.20;67.40
10057;DHT22;5068;51.286;7.518;2023-11-18T06:32:02;1.20;67.50
10057;DHT22;5068;51.286;7.518;2023-11-18T06:33:39;1.20;67.50
10057;DHT22;5068;51.286;7.518;2023-11-18T06:35:15;1.20;67.60
10057;DHT22;5068;51.286;7.518;2023-11-18T06:36:48;1.20;67.40
10057;DHT22;5068;51.286;7.518;2023-11-18T06:38:22;1.20;67.50
10057;DHT22;5068;51.286;7.518;2023-11-18T06:39:56;1.20;67.50
10057;DHT22;5068;51.286;7.518;2023-11-18T06:41:28;1.20;67.50
10057;DHT22;5068;51.286;7.518;2023-11-18T06:43:06;1.20;67.50
10057;DHT22;5068;51.286;7.518;2023-11-18T06:44:43;1.20;67.50
10057;DHT22;5068;51.286;7.518;2023-11-18T06:46:16;1.30;67.60
10057;DHT22;5068;51.286;7.518;2023-11-18T06:47:52;1.20;67.50
10057;DHT22;5068;51.286;7.518;2023-11-18T06:49:25;1.30;67.50
10057;DHT22;5068;51.286;7.518;2023-11-18T06:50:58;1.30;67.50
10057;DHT22;5068;51.286;7.518;2023-11-18T06:52:31;1.30;67.50
10057;DHT22;5068;51.286;7.518;2023-11-18T06:54:06;1.30;67.50
10057;DHT22;5068;51.286;7.518;2023-11-18T06:55:43;1.30;67.60
10057;DHT22;5068;51.286;7.518;2023-11-18T06:57:15;1.30;67.40
10057;DHT22;5068;51.286;7.518;2023-11-18T06:58:49;1.30;67.30
10057;DHT22;5068;51.286;7.518;2023-11-18T07:00:21;1.30;67.30
10057;DHT22;5068;51.286;7.518;2023-11-18T07:01:59;1.30;67.50
10057;DHT22;5068;51.286;7.518;2023-11-18T07:03:32;1.30;67.40
10057;DHT22;5068;51.286;7.518;2023-11-18T07:05:06;1.30;67.50
10057;DHT22;5068;51.286;7.518;2023-11-18T07:06:39;1.30;67.60
10057;DHT22;5068;51.286;7.518;2023-11-18T07:08:13;1.30;67.60
10057;DHT22;5068;51.286;7.518;2023-11-18T07:09:46;1.30;67.60
10057;DHT22;5068;51.286;7.518;2023-11-18T07:11:23;1.30;67.60
10057;DHT22;5068;51.286;7.518;2023-11-18T07:12:55;1.30;67.70
10057;DHT22;5068;51.286;7.518;2023-11-18T07:14:29;1.30;68.50
10057;DHT22;5068;51.286;7.518;2023-11-18T07:16:01;1.30;67.70
10057;DHT22;5068;51.286;7.518;2023-11-18T07:17:37;1.30;67.80
10057;DHT22;5068;51.286;7.518;2023-11-18T07:19:09;1.30;67.80
10057;DHT22;5068;51.286;7.518;2023-11-18T07:20:49;1.30;67.90
10057;DHT22;5068;51.286;7.518;2023-11-18T07:22:23;1.30;67.90
10057;DHT22;5068;51.286;7.518;2023-11-18T07:23:56;1.30;67.90
10057;DHT22;5068;51.286;7.518;2023-11-18T07:25:31;1.30;68.00
10057;DHT22;5068;51.286;7.518;2023-11-18T07:27:05;1.30;68.00
10057;DHT22;5068;51.286;7.518;2023-11-18T07:28:38;1.40;68.20
10057;DHT22;5068;51.286;7.518;2023-11-18T07:30:12;1.40;68.20
10057;DHT22;5068;51.286;7.518;2023-11-18T07:31:45;1.40;68.20
10057;DHT22;5068;51.286;7.518;2023-11-18T07:33:18;1.40;68.10
10057;DHT22;5068;51.286;7.518;2023-11-18T07:34:53;1.40;68.20
10057;DHT22;5068;51.286;7.518;2023-11-18T07:36:28;1.40;68.20
10057;DHT22;5068;51.286;7.518;2023-11-18T07:38:01;1.40;68.10
10057;DHT22;5068;51.286;7.518;2023-11-18T07:39:33;1.40;68.20
10057;DHT22;5068;51.286;7.518;2023-11-18T07:41:18;1.40;68.20
10057;DHT22;5068;51.286;7.518;2023-11-18T07:42:55;1.50;68.40
10057;DHT22;5068;51.286;7.518;2023-11-18T07:44:29;1.50;68.50
10057;DHT22;5068;51.286;7.518;2023-11-18T07:46:01;1.50;68.40
10057;DHT22;5068;51.286;7.518;2023-11-18T07:47:34;1.50;68.50
10057;DHT22;5068;51.286;7.518;2023-11-18T07:49:07;1.50;68.50
10057;DHT22;5068;51.286;7.518;2023-11-18T07:50:43;1.50;68.50
10057;DHT22;5068;51.286;7.518;2023-11-18T07:52:16;1.50;68.60
10057;DHT22;5068;51.286;7.518;2023-11-18T07:53:50;1.50;68.50
10057;DHT22;5068;51.286;7.518;2023-11-18T07:55:24;1.60;68.70
10057;DHT22;5068;51.286;7.518;2023-11-18T07:56:59;1.50;69.40
10057;DHT22;5068;51.286;7.518;2023-11-18T07:58:32;1.50;68.50
10057;DHT22;5068;51.286;7.518;2023-11-18T08:00:05;1.50;68.60
10057;DHT22;5068;51.286;7.518;2023-11-18T08:01:47;1.50;68.80
10057;DHT22;5068;51.286;7.518;2023-11-18T08:03:20;1.60;68.90
10057;DHT22;5068;51.286;7.518;2023-11-18T08:04:53;1.60;68.90
10057;DHT22;5068;51.286;7.518;2023-11-18T08:06:27;1.60;68.90
10057;DHT22;5068;51.286;7.518;2023-11-18T08:08:00;1.60;69.10
10057;DHT22;5068;51.286;7.518;2023-11-18T08:09:33;1.60;69.00
10057;DHT22;5068;51.286;7.518;2023-11-18T08:11:06;1.60;69.10
10057;DHT22;5068;51.286;7.518;2023-11-18T08:12:41;1.60;70.10
10057;DHT22;5068;51.286;7.518;2023-11-18T08:14:15;1.60;69.30
10057;DHT22;5068;51.286;7.518;2023-11-18T08:15:49;1.70;69.40
10057;DHT22;5068;51.286;7.518;2023-11-18T08:17:21;1.70;69.50
10057;DHT22;5068;51.286;7.518;2023-11-18T08:18:57;1.70;69.50
10057;DHT22;5068;51.286;7.518;2023-11-18T08:20:29;1.70;69.60
10057;DHT22;5068;51.286;7.518;2023-11-18T08:22:03;1.70;69.70
10057;DHT22;5068;51.286;7.518;2023-11-18T08:23:35;1.80;70.10
10057;DHT22;5068;51.286;7.518;2023-11-18T08:25:09;1.80;69.90
10057;DHT22;5068;51.286;7.518;2023-11-18T08:26:41;1.80;70.10
10057;DHT22;5068;51.286;7.518;2023-11-18T08:28:16;1.80;70.00
10057;DHT22;5068;51.286;7.518;2023-11-18T08:29:49;1.90;70.30
10057;DHT22;5068;51.286;7.518;2023-11-18T08:31:23;1.90;70.30
10057;DHT22;5068;51.286;7.518;2023-11-18T08:32:55;1.90;70.40
10057;DHT22;5068;51.286;7.518;2023-11-18T08:34:30;1.90;70.50
10057;DHT22;5068;51.286;7.518;2023-11-18T08:36:02;2.00;70.70
10057;DHT22;5068;51.286;7.518;2023-11-18T08:37:52;2.00;70.80
10057;DHT22;5068;51.286;7.518;2023-11-18T08:39:39;2.10;70.90
10057;DHT22;5068;51.286;7.518;2023-11-18T08:41:13;2.10;70.90
10057;DHT22;5068;51.286;7.518;2023-11-18T08:42:47;2.10;70.80
10057;DHT22;5068;51.286;7.518;2023-11-18T08:44:24;2.10;70.90
10057;DHT22;5068;51.286;7.518;2023-11-18T08:45:57;2.20;71.00
10057;DHT22;5068;51.286;7.518;2023-11-18T08:47:30;2.20;70.90
10057;DHT22;5068;51.286;7.518;2023-11-18T08:49:04;2.20;70.90
10057;DHT22;5068;51.286;7.518;2023-11-18T08:50:42;2.30;71.00
10057;DHT22;5068;51.286;7.518;2023-11-18T08:52:15;2.30;71.00
10057;DHT22;5068;51.286;7.518;2023-11-18T08:53:49;2.30;71.10
10057;DHT22;5068;51.286;7.518;2023-11-18T08:55:23;2.30;71.00
10057;DHT22;5068;51.286;7.518;2023-11-18T08:57:11;2.40;71.20
10057;DHT22;5068;51.286;7.518;2023-11-18T08:58:55;2.40;72.10
10057;DHT22;5068;51.286;7.518;2023-11-18T09:00:33;2.40;71.20
10057;DHT22;5068;51.286;7.518;2023-11-18T09:02:27;2.50;71.50
10057;DHT22;5068;51.286;7.518;2023-11-18T09:04:05;2.50;71.50
10057;DHT22;5068;51.286;7.518;2023-11-18T09:05:37;2.60;71.60
10057;DHT22;5068;51.286;7.518;2023-11-18T09:07:13;2.60;71.70
10057;DHT22;5068;51.286;7.518;2023-11-18T09:08:49;2.60;71.70
10057;DHT22;5068;51.286;7.518;2023-11-18T09:10:25;2.70;72.00
10057;DHT22;5068;51.286;7.518;2023-11-18T09:11:59;2.70;71.90
10057;DHT22;5068;51.286;7.518;2023-11-18T09:13:34;2.80;72.00
10057;DHT22;5068;51.286;7.518;2023-11-18T09:15:08;2.80;72.10
10057;DHT22;5068;51.286;7.518;2023-11-18T09:16:42;2.80;72.10
10057;DHT22;5068;51.286;7.518;2023-11-18T09:18:16;2.80;72.10
10057;DHT22;5068;51.286;7.518;2023-11-18T09:19:50;2.90;72.30
10057;DHT22;5068;51.286;7.518;2023-11-18T09:21:24;2.90;72.30
10057;DHT22;5068;51.286;7.518;2023-11-18T09:23:00;3.00;72.50
10057;DHT22;5068;51.286;7.518;2023-11-18T09:24:34;3.00;72.40
10057;DHT22;5068;51.286;7.518;2023-11-18T09:26:08;3.00;72.30
10057;DHT22;5068;51.286;7.518;2023-11-18T09:27:42;3.00;72.50
10057;DHT22;5068;51.286;7.518;2023-11-18T09:29:14;3.10;72.60
10057;DHT22;5068;51.286;7.518;2023-11-18T09:30:50;3.10;72.70
10057;DHT22;5068;51.286;7.518;2023-11-18T09:32:26;3.20;72.90
10057;DHT22;5068;51.286;7.518;2023-11-18T09:34:00;3.20;72.90
10057;DHT22;5068;51.286;7.518;2023-11-18T09:35:33;3.20;72.90
10057;DHT22;5068;51.286;7.518;2023-11-18T09:37:06;3.30;73.10
10057;DHT22;5068;51.286;7.518;2023-11-18T09:38:41;3.30;73.00
10057;DHT22;5068;51.286;7.518;2023-11-18T09:40:16;3.30;73.00
10057;DHT22;5068;51.286;7.518;2023-11-18T09:41:55;3.40;73.10
10057;DHT22;5068;51.286;7.518;2023-11-18T09:43:29;3.50;73.40
10057;DHT22;5068;51.286;7.518;2023-11-18T09:45:05;3.50;73.60
10057;DHT22;5068;51.286;7.518;2023-11-18T09:46:47;3.50;73.70
10057;DHT22;5068;51.286;7.518;2023-11-18T09:48:30;3.60;73.80
10057;DHT22;5068;51.286;7.518;2023-11-18T09:50:13;3.60;73.70
10057;DHT22;5068;51.286;7.518;2023-11-18T09:51:51;3.70;73.90
10057;DHT22;5068;51.286;7.518;2023-11-18T09:53:30;3.70;73.80
10057;DHT22;5068;51.286;7.518;2023-11-18T09:55:12;3.80;73.90
10057;DHT22;5068;51.286;7.518;2023-11-18T09:57:02;3.80;73.90
10057;DHT22;5068;51.286;7.518;2023-11-18T09:58:45;3.90;74.00
10057;DHT22;5068;51.286;7.518;2023-11-18T10:00:29;4.00;74.10
10057;DHT22;5068;51.286;7.518;2023-11-18T10:02:05;4.00;74.00
10057;DHT22;5068;51.286;7.518;2023-11-18T10:03:44;4.00;73.90
10057;DHT22;5068;51.286;7.518;2023-11-18T10:05:19;4.10;73.90
10057;DHT22;5068;51.286;7.518;2023-11-18T10:06:54;4.10;73.90
10057;DHT22;5068;51.286;7.518;2023-11-18T10:08:28;4.10;73.90
10057;DHT22;5068;51.286;7.518;2023-11-18T10:10:02;4.20;73.90
10057;DHT22;5068;51.286;7.518;2023-11-18T10:11:35;4.20;74.00
10057;DHT22;5068;51.286;7.518;2023-11-18T10:13:09;4.20;73.70
10057;DHT22;5068;51.286;7.518;2023-11-18T10:14:53;4.30;73.70
10057;DHT22;5068;51.286;7.518;2023-11-18T10:16:28;4.30;73.70
10057;DHT22;5068;51.286;7.518;2023-11-18T10:18:03;4.40;73.70